ウランバートル の空港の天気 - METARとTAF

チンギスハーン国際空港 ( ZMUB / ULN ) - モンゴル ウランバートル
飛行場実況気象(Metar)
観測時間03/27 22:00 +08 (03/27 14:00 UTC)
風向・風速南南東 2m/s
視程10km以上
天気現象
なし
気温-4℃
湿度63%
気圧1019hPa
METARZMUB 271400Z 15002MPS CAVOK M04/M10 Q1019 NOSIG RMK QFE656.7 63
過去の天気等 Google飛行場航空写真 Wunderground天気予報

過去48時間のMETAR

飛行場予報(TAF)
発表時間: 3/27 18:38 +08 (3/27 10:38 UTC)
予報対象時間: 27日20時 +08 ~ 29日2時 +08
風向・風速不定 2m/s
視程10km以上
全天の4割程度の雲 雲底高度 3,050m
28日11時 +08 ~ 28日13時 +08 に徐々に
風向・風速北北西 5m/s
28日19時 +08 ~ 28日21時 +08 に徐々に
風向・風速不定 2m/s
TAF ZMUB 271038Z 2712/2818 VRB02MPS 9999 SCT100 TNM10/2722Z TX07/2807Z
BECMG 2803/2805 33005MPS
BECMG 2811/2813 VRB02MPS